Moody Air Force Base
KVAD : now visible

Airfield :











YOU CAN JOIN US ON...

 
LOGIN :

Register | Disclaimer

   EN    FR    IT 

 









Legend :    VFR   Marginal VFR   IFR   Intensive IFR   Very Intensive IFR
Visi :
Ceiling :
>= 8 km
>= 3000ft
5 to 8 km
1000 to 3000 ft
1500m to 5 km
500 to 1000 ft
800 to 1500m
200 to 500 ft
< 800m
< 200 ft
Symbols :   Thunderstorms  Fog  Heavy snow  Heavy precipitations  Wind > 20 kt






- Airport Elevation : 233 ft


KVAD - Moody Air Force Base

CURRENT METAR :
  • 290758Z 18017G21KT 10SM OVC013 26/23 A2985 RMK SLP108 $

EXPIRED METARs :
  • 290656Z AUTO 17013KT 10SM BKN013 OVC030 25/23 A2987 RMK AO2 SLP115 T02520230 $
  • 290642Z AUTO 16012KT 10SM BKN013 OVC028 25/23 A2988 RMK AO2 CIG 013V028 BKN V SCT SLP118 $
  • 290556Z AUTO 15011KT 10SM SCT011 BKN029 BKN036 25/23 A2989 RMK AO2 CIG 010V029 BKN029 V OVC SLP122 T02510229 10257 20249 57018 $

TAF TAF KVAD
Valid from the 29 at 08:00 until the 30 at 14:00 UTC


290800Z 2908/3014 18015G20KT 9999 BKN015 QNH2994INS
BECMG 2915/2916 20015G25KT 8000 -SHRA BKN020 QNH2976INS
TEMPO 2917/2921 VRB15G25KT 4800 -TSRA BKN030CB
BECMG 2921/2922 22009KT 9999 NSW BKN020 QNH2975INS
BECMG 2923/2924 22009KT 9999 SCT020 QNH2980INS
BECMG 3001/3002 22009KT 9999 SKC QNH2980INS TX27/2916Z TN16/3006Z
KZJX FIR / North America



MET'MAP, your aeronautical weather chart ! - Copyright ORBIFLY December 2007 - Disclaimer

ORBIFLY MET'MAP TEAM :

Programming & Development : Alexandra Zaïnal
Concept & original design : Baudouin d'Aumeries
Assistance for programming : Marc-Olivier Méhu
Technical & hardware support : Manuel Goepfert

Contact : metmap@orbifly.com




SOURCES & CREDITS :

   NOAA       Earth
Advisory